Time;durP1;ratioP1;P1;durP2;ratioP2;P2;SDS_P1;SDS_P2;PMS_P1;PMS_P2;Temp;Humidity;BMP_temperature;BMP_pressure;BME280_temperature;BME280_humidity;BME280_pressure;Samples;Min_cycle;Max_cycle;Signal;HPM_P1;HPM_P2
2022/05/03 00:01:13;;;;;;;3.30;2.70;;;;;;;;;;5072622;28;20066;-39
2022/05/03 00:03:46;;;;;;;4.13;2.72;;;;;;;;;;5072585;28;20553;-38
2022/05/03 00:06:20;;;;;;;4.30;2.90;;;;;;;;;;5072575;28;20046;-39
2022/05/03 00:09:06;;;;;;;3.63;2.95;;;;;;;;;;5072736;28;20036;-39
2022/05/03 00:11:37;;;;;;;3.45;3.00;;;;;;;;;;5072557;28;20191;-39
2022/05/03 00:14:25;;;;;;;3.50;3.05;;;;;;;;;;5054513;28;20069;-39
2022/05/03 00:16:52;;;;;;;5.00;3.15;;;;;;;;;;5072431;28;20024;-38
2022/05/03 00:19:17;;;;;;;3.35;3.05;;;;;;;;;;5072588;28;20028;-38
2022/05/03 00:21:43;;;;;;;5.65;3.05;;;;;;;;;;5072676;28;20031;-39
2022/05/03 00:24:09;;;;;;;3.45;3.13;;;;;;;;;;5072618;28;20032;-39
2022/05/03 00:26:36;;;;;;;2.88;2.58;;;;;;;;;;5072599;28;20058;-39
2022/05/03 00:29:03;;;;;;;7.57;2.80;;;;;;;;;;5072587;28;20031;-39
2022/05/03 00:31:29;;;;;;;9.65;3.47;;;;;;;;;;5072246;28;20035;-39
2022/05/03 00:33:56;;;;;;;3.42;3.08;;;;;;;;;;5072269;28;20108;-40
2022/05/03 00:36:22;;;;;;;3.65;3.10;;;;;;;;;;5072230;28;20379;-39
2022/05/03 00:38:48;;;;;;;5.28;3.35;;;;;;;;;;5072539;28;20031;-40
2022/05/03 00:41:18;;;;;;;4.97;3.20;;;;;;;;;;5072227;28;20020;-39
2022/05/03 00:47:10;;;;;;;3.85;3.45;;;;;;;;;;5072071;28;20083;-39
2022/05/03 00:50:18;;;;;;;3.75;3.42;;;;;;;;;;5075243;28;20036;-39
2022/05/03 00:53:20;;;;;;;5.05;3.30;;;;;;;;;;5048696;28;20044;-39
2022/05/03 00:56:15;;;;;;;3.70;3.30;;;;;;;;;;5036363;28;20133;-39
2022/05/03 00:58:43;;;;;;;4.10;3.63;;;;;;;;;;5036270;28;20021;-40
2022/05/03 01:01:38;;;;;;;4.30;3.20;;;;;;;;;;5035903;28;20044;-39
2022/05/03 01:04:22;;;;;;;4.30;3.17;;;;;;;;;;5026684;28;20084;-39
2022/05/03 01:07:22;;;;;;;4.65;3.35;;;;;;;;;;5035892;28;20409;-40
2022/05/03 01:10:31;;;;;;;4.47;3.45;;;;;;;;;;5028316;28;20041;-39
2022/05/03 01:13:11;;;;;;;4.30;2.97;;;;;;;;;;5036093;28;20037;-39
2022/05/03 01:15:44;;;;;;;3.90;3.45;;;;;;;;;;5035698;28;20024;-39
2022/05/03 01:18:26;;;;;;;4.47;3.35;;;;;;;;;;5035918;28;20091;-39
2022/05/03 01:21:18;;;;;;;3.88;2.95;;;;;;;;;;5035573;28;20029;-39
2022/05/03 01:24:08;;;;;;;4.80;3.42;;;;;;;;;;5035653;28;20386;-39
2022/05/03 01:26:52;;;;;;;4.55;3.40;;;;;;;;;;5035491;28;20025;-39
2022/05/03 01:29:30;;;;;;;3.88;3.25;;;;;;;;;;5035757;28;20037;-40
2022/05/03 01:32:04;;;;;;;5.18;3.22;;;;;;;;;;5035693;28;20025;-39
2022/05/03 01:34:30;;;;;;;4.13;3.35;;;;;;;;;;5035618;28;20025;-39
2022/05/03 01:37:28;;;;;;;3.75;3.45;;;;;;;;;;5035292;28;20021;-40
2022/05/03 01:40:05;;;;;;;5.70;3.28;;;;;;;;;;5035508;28;20026;-39
2022/05/03 01:43:08;;;;;;;6.13;3.40;;;;;;;;;;5035156;28;20036;-39
2022/05/03 01:45:42;;;;;;;4.63;3.53;;;;;;;;;;5035101;28;20030;-39
2022/05/03 01:51:55;;;;;;;3.53;3.20;;;;;;;;;;5035335;28;20060;-40
2022/05/03 01:54:33;;;;;;;5.50;3.50;;;;;;;;;;5059288;28;20049;-40
2022/05/03 01:57:49;;;;;;;4.10;3.33;;;;;;;;;;5074857;28;20044;-40
2022/05/03 02:00:15;;;;;;;5.30;3.47;;;;;;;;;;5039233;28;20052;-39
2022/05/03 02:02:43;;;;;;;4.20;3.60;;;;;;;;;;5074733;28;20164;-40
2022/05/03 02:05:18;;;;;;;4.10;3.40;;;;;;;;;;5074942;28;20021;-40
2022/05/03 02:07:58;;;;;;;4.97;3.78;;;;;;;;;;5074914;28;20168;-40
2022/05/03 02:10:29;;;;;;;;;;;;;;;;;;5075089;28;20110;-40
2022/05/03 02:13:01;;;;;;;4.10;3.17;;;;;;;;;;5074630;28;19912;-40
2022/05/03 02:15:38;;;;;;;7.40;3.85;;;;;;;;;;5074553;28;20017;-40
2022/05/03 02:18:14;;;;;;;3.75;3.45;;;;;;;;;;5074454;28;20542;-40
2022/05/03 02:21:11;;;;;;;4.93;3.75;;;;;;;;;;5074490;28;20031;-39
2022/05/03 02:23:49;;;;;;;6.35;4.45;;;;;;;;;;5074643;28;20027;-40
2022/05/03 02:26:30;;;;;;;5.50;3.80;;;;;;;;;;5074610;28;20024;-40
2022/05/03 02:29:06;;;;;;;5.97;4.05;;;;;;;;;;5074135;28;20033;-40
2022/05/03 02:31:37;;;;;;;5.20;3.75;;;;;;;;;;5074430;28;20461;-40
2022/05/03 02:34:33;;;;;;;6.88;3.60;;;;;;;;;;5074152;28;20032;-39
2022/05/03 02:37:11;;;;;;;6.00;4.20;;;;;;;;;;5074110;28;20429;-39
2022/05/03 02:40:00;;;;;;;5.40;4.00;;;;;;;;;;5074046;28;20021;-40
2022/05/03 02:42:26;;;;;;;7.95;4.13;;;;;;;;;;5073553;28;20037;-39
2022/05/03 02:44:55;;;;;;;7.40;4.05;;;;;;;;;;5074147;28;20021;-41
2022/05/03 02:47:31;;;;;;;5.35;4.13;;;;;;;;;;5073728;28;20421;-39
2022/05/03 02:50:03;;;;;;;3.83;3.45;;;;;;;;;;5074140;28;20075;-40
2022/05/03 02:52:57;;;;;;;4.38;3.85;;;;;;;;;;5073714;28;20028;-40
2022/05/03 02:55:37;;;;;;;5.35;4.05;;;;;;;;;;5073711;28;20139;-40
2022/05/03 02:58:39;;;;;;;5.50;4.27;;;;;;;;;;5073908;28;20021;-41
2022/05/03 03:04:22;;;;;;;9.43;4.63;;;;;;;;;;5073856;28;20031;-40
2022/05/03 03:06:51;;;;;;;;;;;;;;;;;;5073991;28;20101;-40
2022/05/03 03:09:24;;;;;;;5.53;4.10;;;;;;;;;;5073601;28;19912;-40
2022/05/03 03:12:10;;;;;;;8.23;4.30;;;;;;;;;;5073534;28;20050;-40
2022/05/03 03:14:52;;;;;;;6.18;3.83;;;;;;;;;;5073650;28;20067;-40
2022/05/03 03:17:28;;;;;;;6.47;4.35;;;;;;;;;;5073578;28;20028;-40
2022/05/03 03:19:59;;;;;;;6.10;4.10;;;;;;;;;;5073285;28;20031;-40
2022/05/03 03:22:40;;;;;;;5.15;4.22;;;;;;;;;;5073528;28;20468;-40
2022/05/03 03:25:07;;;;;;;5.43;4.40;;;;;;;;;;5073444;28;20490;-39
2022/05/03 03:27:34;;;;;;;5.65;4.40;;;;;;;;;;5073310;28;20032;-40
2022/05/03 03:30:02;;;;;;;8.73;4.90;;;;;;;;;;5072979;28;20052;-40
2022/05/03 03:32:28;;;;;;;7.60;4.35;;;;;;;;;;5073274;28;20029;-41
2022/05/03 03:34:58;;;;;;;7.75;4.07;;;;;;;;;;5073233;28;20028;-38
2022/05/03 03:37:29;;;;;;;5.30;4.38;;;;;;;;;;5073180;28;20438;-39
2022/05/03 03:39:55;;;;;;;5.60;4.32;;;;;;;;;;5072911;28;20143;-39
2022/05/03 03:42:20;;;;;;;4.28;3.67;;;;;;;;;;5072833;28;20455;-39
2022/05/03 03:44:47;;;;;;;4.53;3.90;;;;;;;;;;5072821;28;20043;-39
2022/05/03 03:47:15;;;;;;;5.50;3.80;;;;;;;;;;5072678;28;20025;-39
2022/05/03 03:49:40;;;;;;;5.50;3.85;;;;;;;;;;5072976;28;20438;-38
2022/05/03 03:52:09;;;;;;;4.38;3.80;;;;;;;;;;5073025;28;20028;-39
2022/05/03 03:54:36;;;;;;;7.00;4.05;;;;;;;;;;5072523;28;20044;-38
2022/05/03 03:57:04;;;;;;;8.35;4.05;;;;;;;;;;5072652;28;20414;-38
2022/05/03 03:59:31;;;;;;;5.75;4.00;;;;;;;;;;5072735;28;20031;-39
2022/05/03 04:01:58;;;;;;;5.57;4.10;;;;;;;;;;5072604;28;20024;-39
2022/05/03 04:04:30;;;;;;;4.38;3.85;;;;;;;;;;5072607;28;20073;-39
2022/05/03 04:06:56;;;;;;;5.30;3.92;;;;;;;;;;5072831;28;20025;-39
2022/05/03 04:09:21;;;;;;;4.18;3.60;;;;;;;;;;5072450;28;20453;-39
2022/05/03 04:11:47;;;;;;;6.20;4.03;;;;;;;;;;5072750;28;20029;-39
2022/05/03 04:14:14;;;;;;;6.30;4.25;;;;;;;;;;5072705;28;20024;-39
2022/05/03 04:16:40;;;;;;;5.15;4.40;;;;;;;;;;5072336;28;20024;-39
2022/05/03 04:19:06;;;;;;;4.40;4.00;;;;;;;;;;5072689;28;20109;-40
2022/05/03 04:21:32;;;;;;;5.30;3.95;;;;;;;;;;5072383;28;20097;-38
2022/05/03 04:23:57;;;;;;;6.40;4.03;;;;;;;;;;5072027;28;20032;-38
2022/05/03 04:26:23;;;;;;;9.43;4.25;;;;;;;;;;5072277;28;20095;-40
2022/05/03 04:28:48;;;;;;;5.20;3.88;;;;;;;;;;5072133;28;20028;-39
2022/05/03 04:31:14;;;;;;;4.60;4.00;;;;;;;;;;5072533;28;20028;-39
2022/05/03 04:33:39;;;;;;;6.63;4.38;;;;;;;;;;5072508;28;20100;-40
2022/05/03 04:36:05;;;;;;;6.93;4.10;;;;;;;;;;5072264;28;20055;-40
2022/05/03 04:38:30;;;;;;;6.40;4.35;;;;;;;;;;5072519;28;20025;-39
2022/05/03 04:41:02;;;;;;;5.25;4.20;;;;;;;;;;5072440;28;20108;-39
2022/05/03 04:43:27;;;;;;;5.72;4.60;;;;;;;;;;5072468;28;20016;-39
2022/05/03 04:45:53;;;;;;;6.50;4.40;;;;;;;;;;5072356;28;20503;-40
2022/05/03 04:48:18;;;;;;;4.20;3.80;;;;;;;;;;5071996;28;20101;-40
2022/05/03 04:50:44;;;;;;;4.18;3.78;;;;;;;;;;5072381;28;20085;-40
2022/05/03 04:53:09;;;;;;;5.53;4.40;;;;;;;;;;5071960;28;20025;-40
2022/05/03 04:55:41;;;;;;;6.32;4.20;;;;;;;;;;5072319;28;20105;-38
2022/05/03 04:58:06;;;;;;;8.43;4.03;;;;;;;;;;5071951;28;20033;-39
2022/05/03 05:00:32;;;;;;;5.25;4.35;;;;;;;;;;5071963;28;20021;-39
2022/05/03 05:02:57;;;;;;;7.18;4.55;;;;;;;;;;5071946;28;20028;-38
2022/05/03 05:05:23;;;;;;;4.55;4.10;;;;;;;;;;5071962;28;20028;-39
2022/05/03 05:07:48;;;;;;;5.13;4.38;;;;;;;;;;5071829;28;20411;-40
2022/05/03 05:10:23;;;;;;;6.75;4.60;;;;;;;;;;5071846;28;20103;-40
2022/05/03 05:12:49;;;;;;;7.35;4.70;;;;;;;;;;5071918;28;20074;-39
2022/05/03 05:15:15;;;;;;;6.00;4.47;;;;;;;;;;5071828;28;20032;-39
2022/05/03 05:17:40;;;;;;;4.38;3.67;;;;;;;;;;5071870;28;20039;-39
2022/05/03 05:20:06;;;;;;;3.83;3.38;;;;;;;;;;5069477;28;20072;-39
2022/05/03 05:22:32;;;;;;;4.68;3.28;;;;;;;;;;5070626;28;20013;-39
2022/05/03 05:24:57;;;;;;;4.97;3.67;;;;;;;;;;5069614;28;20036;-38
2022/05/03 05:27:23;;;;;;;6.18;3.88;;;;;;;;;;5070201;28;20051;-39
2022/05/03 05:29:48;;;;;;;4.07;3.28;;;;;;;;;;5069778;28;20086;-40
2022/05/03 05:32:13;;;;;;;7.85;3.70;;;;;;;;;;5070466;28;20121;-39
2022/05/03 05:34:39;;;;;;;4.63;3.47;;;;;;;;;;5071652;28;20099;-39
2022/05/03 05:37:04;;;;;;;5.47;3.33;;;;;;;;;;5072894;28;20407;-39
2022/05/03 05:39:29;;;;;;;4.38;3.35;;;;;;;;;;5073347;28;20029;-39
2022/05/03 05:41:56;;;;;;;4.20;3.72;;;;;;;;;;5073838;28;20024;-39
2022/05/03 05:44:22;;;;;;;3.70;3.17;;;;;;;;;;5075169;28;20024;-39
2022/05/03 05:46:48;;;;;;;10.00;3.40;;;;;;;;;;5074886;28;20361;-39
2022/05/03 05:49:13;;;;;;;4.63;3.00;;;;;;;;;;5073167;28;20080;-40
2022/05/03 05:51:39;;;;;;;5.32;3.67;;;;;;;;;;5074818;28;20028;-39
2022/05/03 05:54:04;;;;;;;8.07;3.55;;;;;;;;;;5074119;28;20381;-39
2022/05/03 05:56:30;;;;;;;2.88;2.67;;;;;;;;;;5057228;28;20525;-40
2022/05/03 05:58:56;;;;;;;4.00;3.03;;;;;;;;;;5072959;28;20099;-40
2022/05/03 06:01:45;;;;;;;4.38;3.10;;;;;;;;;;5073789;28;20020;-39
2022/05/03 06:04:16;;;;;;;9.55;6.35;;;;;;;;;;5073839;28;20115;-42
2022/05/03 06:06:42;;;;;;;4.05;3.10;;;;;;;;;;5074667;28;20047;-39
2022/05/03 06:09:07;;;;;;;3.85;3.47;;;;;;;;;;5074407;28;20388;-39
2022/05/03 06:11:33;;;;;;;3.45;3.15;;;;;;;;;;5056514;28;20028;-39
2022/05/03 06:13:58;;;;;;;4.55;3.97;;;;;;;;;;5074396;28;20029;-39
2022/05/03 06:16:24;;;;;;;3.70;3.25;;;;;;;;;;5074678;28;20024;-39
2022/05/03 06:18:49;;;;;;;3.67;2.70;;;;;;;;;;5074636;28;20529;-39
2022/05/03 06:21:15;;;;;;;3.85;3.38;;;;;;;;;;5074205;28;20544;-40
2022/05/03 06:23:40;;;;;;;3.20;2.90;;;;;;;;;;5074539;28;20028;-39
2022/05/03 06:26:06;;;;;;;4.63;2.95;;;;;;;;;;5074469;28;20028;-40
2022/05/03 06:28:32;;;;;;;5.38;3.47;;;;;;;;;;5074402;28;20055;-41
2022/05/03 06:30:58;;;;;;;4.68;3.45;;;;;;;;;;5074449;28;20116;-40
2022/05/03 06:33:23;;;;;;;4.13;3.15;;;;;;;;;;5074188;28;20484;-39
2022/05/03 06:35:49;;;;;;;3.45;2.90;;;;;;;;;;5074148;28;20036;-39
2022/05/03 06:38:14;;;;;;;3.88;3.13;;;;;;;;;;5073992;28;20472;-39
2022/05/03 06:40:40;;;;;;;5.75;3.28;;;;;;;;;;5073859;28;20024;-40
2022/05/03 06:43:06;;;;;;;5.60;3.13;;;;;;;;;;5073837;28;20028;-39
2022/05/03 06:45:31;;;;;;;4.85;3.50;;;;;;;;;;5073720;28;20024;-40
2022/05/03 06:47:56;;;;;;;4.78;3.25;;;;;;;;;;5062119;28;20029;-39
2022/05/03 06:50:22;;;;;;;5.75;3.72;;;;;;;;;;5062036;28;20024;-40
2022/05/03 06:52:48;;;;;;;47.15;29.25;;;;;;;;;;5063328;28;20062;-39
2022/05/03 06:55:14;;;;;;;8.68;3.70;;;;;;;;;;5058999;28;20099;-39
2022/05/03 06:57:39;;;;;;;4.40;3.17;;;;;;;;;;5055882;28;20075;-39
2022/05/03 07:00:06;;;;;;;3.78;3.20;;;;;;;;;;5055521;28;20028;-40
2022/05/03 07:02:32;;;;;;;7.00;3.10;;;;;;;;;;5073425;28;20025;-41
2022/05/03 07:05:04;;;;;;;4.75;3.03;;;;;;;;;;5070616;28;21121;-42
2022/05/03 07:07:30;;;;;;;8.05;3.00;;;;;;;;;;5068372;28;20038;-39
2022/05/03 07:09:56;;;;;;;4.82;3.00;;;;;;;;;;5071635;28;20029;-39
2022/05/03 07:12:22;;;;;;;7.25;3.67;;;;;;;;;;5071601;28;20071;-41
2022/05/03 07:14:47;;;;;;;4.10;3.00;;;;;;;;;;5071858;28;20032;-40
2022/05/03 07:22:47;;;;;;;3.78;3.08;;;;;;;;;;5071259;28;20055;-39
2022/05/03 07:25:17;;;;;;;3.05;2.70;;;;;;;;;;5041892;28;20473;-39
2022/05/03 07:27:46;;;;;;;3.45;2.83;;;;;;;;;;5061727;28;20119;-41
2022/05/03 07:30:16;;;;;;;3.13;2.80;;;;;;;;;;5042067;28;20037;-39
2022/05/03 07:32:43;;;;;;;8.00;3.72;;;;;;;;;;5033773;28;20614;-40
2022/05/03 07:35:09;;;;;;;4.68;2.90;;;;;;;;;;5051056;28;20547;-40
2022/05/03 07:37:35;;;;;;;5.30;3.10;;;;;;;;;;5062383;28;20438;-42
2022/05/03 07:40:01;;;;;;;4.30;3.03;;;;;;;;;;5065327;28;20052;-40
2022/05/03 07:42:26;;;;;;;5.15;3.03;;;;;;;;;;5070268;28;20067;-39
2022/05/03 07:44:51;;;;;;;6.22;3.08;;;;;;;;;;5053011;28;20441;-39
2022/05/03 07:47:17;;;;;;;3.42;2.70;;;;;;;;;;5051607;28;20020;-40
2022/05/03 07:49:43;;;;;;;4.47;2.80;;;;;;;;;;5051332;28;20036;-41
2022/05/03 07:52:09;;;;;;;4.05;3.03;;;;;;;;;;5051295;28;20376;-41
2022/05/03 07:54:34;;;;;;;3.55;2.60;;;;;;;;;;5033073;28;20098;-40
2022/05/03 07:56:59;;;;;;;4.05;2.92;;;;;;;;;;5051163;28;20029;-43
2022/05/03 07:59:25;;;;;;;6.75;2.88;;;;;;;;;;5050328;28;20029;-40
2022/05/03 08:01:52;;;;;;;5.10;2.70;;;;;;;;;;5050264;28;20496;-40
2022/05/03 08:04:17;;;;;;;4.13;2.83;;;;;;;;;;5032322;28;20024;-42
2022/05/03 08:06:43;;;;;;;3.42;2.42;;;;;;;;;;5050796;28;20370;-41
2022/05/03 08:09:08;;;;;;;4.07;2.50;;;;;;;;;;5050571;28;20033;-39
2022/05/03 08:12:08;;;;;;;3.13;2.50;;;;;;;;;;5049844;28;20429;-41
2022/05/03 08:14:33;;;;;;;2.28;2.08;;;;;;;;;;5050653;28;20484;-40
2022/05/03 08:16:59;;;;;;;5.50;2.85;;;;;;;;;;5050489;28;20108;-39
2022/05/03 08:19:31;;;;;;;3.58;2.40;;;;;;;;;;5050330;28;20103;-41
2022/05/03 08:22:02;;;;;;;2.20;2.00;;;;;;;;;;5049802;28;20045;-39
2022/05/03 08:24:31;;;;;;;2.33;1.90;;;;;;;;;;5050474;28;20029;-37
2022/05/03 08:26:57;;;;;;;3.67;3.03;;;;;;;;;;5050618;28;20049;-39
2022/05/03 08:29:27;;;;;;;6.78;3.08;;;;;;;;;;5050298;28;20481;-40
2022/05/03 08:31:52;;;;;;;3.65;1.80;;;;;;;;;;5050157;28;20029;-40
2022/05/03 08:34:18;;;;;;;3.78;1.70;;;;;;;;;;5050213;28;20447;-41
2022/05/03 08:42:01;;;;;;;6.15;2.15;;;;;;;;;;5050558;28;20036;-43
2022/05/03 08:42:27;;;;;;;3.78;1.90;;;;;;;;;;5050412;28;20085;-39
2022/05/03 08:45:05;;;;;;;4.32;1.60;;;;;;;;;;5050638;28;20033;-41
2022/05/03 08:47:38;;;;;;;2.78;1.73;;;;;;;;;;5050105;28;20029;-43
2022/05/03 08:50:20;;;;;;;3.25;1.77;;;;;;;;;;5032224;28;20029;-45
2022/05/03 08:52:54;;;;;;;2.30;1.73;;;;;;;;;;5050011;28;20028;-46
2022/05/03 08:55:21;;;;;;;2.20;1.80;;;;;;;;;;5049703;28;20460;-45
2022/05/03 08:58:02;;;;;;;5.07;2.05;;;;;;;;;;5050034;28;20021;-45
2022/05/03 09:00:28;;;;;;;3.72;1.90;;;;;;;;;;5050021;28;20480;-44
2022/05/03 09:02:55;;;;;;;1.90;1.73;;;;;;;;;;5050166;28;20036;-44
2022/05/03 09:05:22;;;;;;;3.92;1.88;;;;;;;;;;5050047;28;20086;-44
2022/05/03 09:08:00;;;;;;;2.10;1.90;;;;;;;;;;5050270;28;20108;-49
2022/05/03 09:10:31;;;;;;;2.60;2.10;;;;;;;;;;5052615;28;20025;-45
2022/05/03 09:13:18;;;;;;;2.35;2.00;;;;;;;;;;5053897;28;20246;-42
2022/05/03 09:15:46;;;;;;;2.30;1.88;;;;;;;;;;5053913;28;20491;-45
2022/05/03 09:18:24;;;;;;;3.28;1.70;;;;;;;;;;5053587;28;20048;-46
2022/05/03 09:23:47;;;;;;;1.80;1.70;;;;;;;;;;5053920;28;20028;-44
2022/05/03 09:26:15;;;;;;;2.90;1.80;;;;;;;;;;5054013;28;20033;-44
2022/05/03 09:29:01;;;;;;;1.98;1.42;;;;;;;;;;5035317;28;20440;-44
2022/05/03 09:31:40;;;;;;;2.65;2.42;;;;;;;;;;5053571;28;20044;-44
2022/05/03 09:34:33;;;;;;;3.42;1.60;;;;;;;;;;5053603;28;20025;-41
2022/05/03 09:37:02;;;;;;;2.03;1.65;;;;;;;;;;5049873;28;20512;-44
2022/05/03 09:39:29;;;;;;;3.60;1.67;;;;;;;;;;5053822;28;20040;-41
2022/05/03 09:42:10;;;;;;;1.80;1.67;;;;;;;;;;5053557;28;20071;-44
2022/05/03 09:44:54;;;;;;;1.80;1.50;;;;;;;;;;5053584;28;20021;-43
2022/05/03 09:47:27;;;;;;;3.17;2.25;;;;;;;;;;5053274;28;20025;-47
2022/05/03 09:49:56;;;;;;;2.65;1.90;;;;;;;;;;5053657;28;20127;-46
2022/05/03 09:52:28;;;;;;;;;;;;;;;;;;5053524;28;20516;-48
2022/05/03 09:54:59;;;;;;;4.30;2.35;;;;;;;;;;5053205;28;20295;-47
2022/05/03 09:57:54;;;;;;;4.65;2.17;;;;;;;;;;5052963;28;20053;-43
2022/05/03 10:00:35;;;;;;;4.30;1.63;;;;;;;;;;5018263;28;20443;-43
2022/05/03 10:03:02;;;;;;;3.17;1.63;;;;;;;;;;5053084;28;20464;-43
2022/05/03 10:05:47;;;;;;;2.20;2.00;;;;;;;;;;5053286;28;20029;-45
2022/05/03 10:08:16;;;;;;;2.22;1.80;;;;;;;;;;5052952;28;20040;-43
2022/05/03 10:10:56;;;;;;;3.92;1.75;;;;;;;;;;5053152;28;20032;-40
2022/05/03 10:13:24;;;;;;;2.33;2.10;;;;;;;;;;5052879;28;20025;-43
2022/05/03 10:21:38;;;;;;;1.85;1.70;;;;;;;;;;5052013;28;20036;-43
2022/05/03 10:24:11;;;;;;;2.83;1.83;;;;;;;;;;5052543;28;20033;-46
2022/05/03 10:27:02;;;;;;;2.72;1.60;;;;;;;;;;5051520;28;20119;-42
2022/05/03 10:29:36;;;;;;;5.18;2.33;;;;;;;;;;5050235;28;20033;-45
2022/05/03 10:32:15;;;;;;;2.38;1.95;;;;;;;;;;5051696;28;20029;-46
2022/05/03 10:34:56;;;;;;;1.70;1.58;;;;;;;;;;5051197;28;20496;-46
2022/05/03 10:37:33;;;;;;;2.63;1.83;;;;;;;;;;5051703;28;20155;-47
2022/05/03 10:40:12;;;;;;;2.33;1.88;;;;;;;;;;5052341;28;20121;-43
2022/05/03 10:42:41;;;;;;;2.17;1.95;;;;;;;;;;5052303;28;20021;-45
2022/05/03 10:45:10;;;;;;;2.20;1.75;;;;;;;;;;5052584;28;20480;-44
2022/05/03 10:47:54;;;;;;;2.05;1.70;;;;;;;;;;5052459;28;20158;-41
2022/05/03 10:50:27;;;;;;;3.22;2.15;;;;;;;;;;5052521;28;20044;-43
2022/05/03 10:52:55;;;;;;;4.75;2.20;;;;;;;;;;5051982;28;20029;-43
2022/05/03 10:55:38;;;;;;;4.00;2.80;;;;;;;;;;5051632;28;20186;-41
2022/05/03 10:58:30;;;;;;;2.00;1.83;;;;;;;;;;5052382;28;20370;-41
2022/05/03 11:01:20;;;;;;;3.10;2.08;;;;;;;;;;5051980;28;20081;-44
2022/05/03 11:03:48;;;;;;;2.35;2.03;;;;;;;;;;5051618;28;20166;-43
2022/05/03 11:06:22;;;;;;;2.15;1.90;;;;;;;;;;5051548;28;20052;-45
2022/05/03 11:11:47;;;;;;;5.47;2.13;;;;;;;;;;5051714;28;20095;-43
2022/05/03 11:14:16;;;;;;;2.75;2.00;;;;;;;;;;5051804;28;20107;-43
2022/05/03 11:16:47;;;;;;;2.90;1.90;;;;;;;;;;5051698;28;20035;-44
2022/05/03 11:19:21;;;;;;;3.75;2.33;;;;;;;;;;5051558;28;20021;-44
2022/05/03 11:21:48;;;;;;;4.50;2.08;;;;;;;;;;5051378;28;20056;-42
2022/05/03 11:24:24;;;;;;;2.40;2.17;;;;;;;;;;5051623;28;20044;-43
2022/05/03 11:26:51;;;;;;;2.42;1.95;;;;;;;;;;5051369;28;20040;-45
2022/05/03 11:29:17;;;;;;;4.32;2.33;;;;;;;;;;5051374;28;20037;-41
2022/05/03 11:31:48;;;;;;;3.60;2.00;;;;;;;;;;5051459;28;20377;-44
2022/05/03 11:34:13;;;;;;;2.45;2.15;;;;;;;;;;5051404;28;20025;-45
2022/05/03 11:36:44;;;;;;;2.20;1.98;;;;;;;;;;5051358;28;20070;-45
2022/05/03 11:39:10;;;;;;;3.05;2.17;;;;;;;;;;5050589;28;20492;-47
2022/05/03 11:41:37;;;;;;;2.10;1.90;;;;;;;;;;5050897;28;20060;-45
2022/05/03 11:44:03;;;;;;;2.38;1.90;;;;;;;;;;5050911;28;20037;-48
2022/05/03 11:46:29;;;;;;;1.85;1.63;;;;;;;;;;5050078;28;20037;-45
2022/05/03 11:49:02;;;;;;;2.75;2.05;;;;;;;;;;5051148;28;20035;-43
2022/05/03 11:57:06;;;;;;;2.97;1.55;;;;;;;;;;5050694;28;20036;-45
2022/05/03 11:59:31;;;;;;;5.72;2.50;;;;;;;;;;5050846;28;20033;-40
2022/05/03 12:02:33;;;;;;;1.90;1.80;;;;;;;;;;5051019;28;20087;-48
2022/05/03 12:05:14;;;;;;;4.53;2.25;;;;;;;;;;4991692;28;20033;-44
2022/05/03 12:07:44;;;;;;;1.88;1.63;;;;;;;;;;5050356;28;20025;-41
2022/05/03 12:10:20;;;;;;;1.98;1.70;;;;;;;;;;5050695;28;20033;-42
2022/05/03 12:13:13;;;;;;;2.05;1.80;;;;;;;;;;5050565;28;20056;-42
2022/05/03 12:16:03;;;;;;;2.33;1.60;;;;;;;;;;5049952;28;20029;-43
2022/05/03 12:18:34;;;;;;;1.80;1.70;;;;;;;;;;5050438;28;20036;-44
2022/05/03 12:21:03;;;;;;;1.58;1.48;;;;;;;;;;5050548;28;20033;-49
2022/05/03 12:23:31;;;;;;;2.97;1.60;;;;;;;;;;5050576;28;20024;-44
2022/05/03 12:25:59;;;;;;;1.90;1.80;;;;;;;;;;5050402;28;20488;-43
2022/05/03 12:28:39;;;;;;;13.95;2.03;;;;;;;;;;5050275;28;20377;-44
2022/05/03 12:31:06;;;;;;;4.72;2.25;;;;;;;;;;5050533;28;20481;-49
2022/05/03 12:33:32;;;;;;;2.17;1.80;;;;;;;;;;5050331;28;20036;-44
2022/05/03 12:35:59;;;;;;;1.70;1.60;;;;;;;;;;5050123;28;20025;-46
2022/05/03 12:38:26;;;;;;;13.85;2.92;;;;;;;;;;5050021;28;20242;-48
2022/05/03 12:40:56;;;;;;;5.65;2.13;;;;;;;;;;5050068;28;20025;-45
2022/05/03 12:43:26;;;;;;;3.38;1.92;;;;;;;;;;5050601;28;20096;-48
2022/05/03 12:46:02;;;;;;;3.70;1.90;;;;;;;;;;5053669;28;20021;-44
2022/05/03 12:48:29;;;;;;;2.35;1.70;;;;;;;;;;5054846;28;20021;-49
2022/05/03 12:50:56;;;;;;;4.78;1.75;;;;;;;;;;5054210;28;20036;-46
2022/05/03 12:53:30;;;;;;;2.22;1.80;;;;;;;;;;5054059;28;20075;-45
2022/05/03 12:55:57;;;;;;;2.65;1.80;;;;;;;;;;5052654;28;20036;-46
2022/05/03 12:58:24;;;;;;;3.53;2.30;;;;;;;;;;5054519;28;20033;-44
2022/05/03 13:00:55;;;;;;;6.72;2.78;;;;;;;;;;5053995;28;20109;-44
2022/05/03 13:03:21;;;;;;;4.43;2.50;;;;;;;;;;5054055;28;20393;-42
2022/05/03 13:05:48;;;;;;;6.63;2.63;;;;;;;;;;5053970;28;20029;-43
2022/05/03 13:08:15;;;;;;;2.38;2.03;;;;;;;;;;5054173;28;20033;-41
2022/05/03 13:10:41;;;;;;;3.47;1.92;;;;;;;;;;5053459;28;20076;-46
2022/05/03 13:13:07;;;;;;;4.15;2.08;;;;;;;;;;5053663;28;20021;-44
2022/05/03 13:15:32;;;;;;;1.50;1.40;;;;;;;;;;5053789;28;20123;-47
2022/05/03 13:17:59;;;;;;;4.03;1.58;;;;;;;;;;5053428;28;20389;-44
2022/05/03 13:20:26;;;;;;;2.17;1.75;;;;;;;;;;5036143;28;20025;-43
2022/05/03 13:22:52;;;;;;;1.67;1.38;;;;;;;;;;5053331;28;20017;-44
2022/05/03 13:25:17;;;;;;;1.42;1.33;;;;;;;;;;5053385;28;20029;-41
2022/05/03 13:27:43;;;;;;;2.33;2.00;;;;;;;;;;5053525;28;20024;-43
2022/05/03 13:30:09;;;;;;;2.22;1.50;;;;;;;;;;5053169;28;20498;-46
2022/05/03 13:32:34;;;;;;;2.13;1.80;;;;;;;;;;5053148;28;20056;-43
2022/05/03 13:35:00;;;;;;;4.25;2.65;;;;;;;;;;5050253;28;20025;-41
2022/05/03 13:42:58;;;;;;;5.22;2.50;;;;;;;;;;5073332;28;20426;-41
2022/05/03 13:45:25;;;;;;;2.63;2.28;;;;;;;;;;5073158;28;20060;-41
2022/05/03 13:47:51;;;;;;;1.35;1.25;;;;;;;;;;5073230;28;20039;-44
2022/05/03 13:50:16;;;;;;;2.85;1.65;;;;;;;;;;5073059;28;20021;-42
2022/05/03 13:52:42;;;;;;;2.13;1.92;;;;;;;;;;5072774;28;20021;-41
2022/05/03 13:55:08;;;;;;;3.08;2.10;;;;;;;;;;5072546;28;20078;-40
2022/05/03 13:57:34;;;;;;;2.55;1.58;;;;;;;;;;5071868;28;20021;-40
2022/05/03 14:00:01;;;;;;;2.28;1.60;;;;;;;;;;5072889;28;20044;-41
2022/05/03 14:02:27;;;;;;;1.92;1.20;;;;;;;;;;5072891;28;20082;-41
2022/05/03 14:04:53;;;;;;;1.60;1.20;;;;;;;;;;5072174;28;20024;-42
2022/05/03 14:07:18;;;;;;;2.00;1.60;;;;;;;;;;5072655;28;20036;-41
2022/05/03 14:09:44;;;;;;;3.38;1.40;;;;;;;;;;5071932;28;20024;-41
2022/05/03 14:12:11;;;;;;;1.40;1.30;;;;;;;;;;5072562;28;20112;-43
2022/05/03 14:14:37;;;;;;;3.22;1.85;;;;;;;;;;5072425;28;20035;-41
2022/05/03 14:17:03;;;;;;;1.40;1.30;;;;;;;;;;5072384;28;20472;-44
2022/05/03 14:19:30;;;;;;;2.47;1.70;;;;;;;;;;5072507;28;20040;-41
2022/05/03 14:21:56;;;;;;;2.70;1.70;;;;;;;;;;5072524;28;20036;-41
2022/05/03 14:24:22;;;;;;;2.63;1.60;;;;;;;;;;5072794;28;20028;-43
2022/05/03 14:26:48;;;;;;;2.38;2.00;;;;;;;;;;5072606;28;20622;-42
2022/05/03 14:29:13;;;;;;;2.63;1.67;;;;;;;;;;5072243;28;20032;-46
2022/05/03 14:31:39;;;;;;;1.80;1.70;;;;;;;;;;5072418;28;20049;-42
2022/05/03 14:34:05;;;;;;;1.60;1.50;;;;;;;;;;5072278;28;20568;-42
2022/05/03 14:36:34;;;;;;;3.30;1.83;;;;;;;;;;5072117;28;20074;-40
2022/05/03 14:39:01;;;;;;;1.92;1.83;;;;;;;;;;5072458;28;20039;-39
2022/05/03 14:41:28;;;;;;;2.20;1.98;;;;;;;;;;5072067;28;20020;-40
2022/05/03 14:43:54;;;;;;;2.17;2.03;;;;;;;;;;5072039;28;20036;-40
2022/05/03 14:46:19;;;;;;;5.75;2.13;;;;;;;;;;5072278;28;20044;-40
2022/05/03 14:48:45;;;;;;;2.20;2.00;;;;;;;;;;5072014;28;20028;-39
2022/05/03 14:51:11;;;;;;;2.65;2.00;;;;;;;;;;5072115;28;20028;-46
2022/05/03 14:53:37;;;;;;;2.95;2.17;;;;;;;;;;5072193;28;20049;-43
2022/05/03 15:04:15;;;;;;;5.53;2.22;;;;;;;;;;5072017;28;20040;-43
2022/05/03 15:06:41;;;;;;;1.60;1.50;;;;;;;;;;5071788;28;20028;-40
2022/05/03 15:09:07;;;;;;;2.38;1.60;;;;;;;;;;5071234;28;20029;-41
2022/05/03 15:11:34;;;;;;;3.97;2.00;;;;;;;;;;5071652;28;20020;-42
2022/05/03 15:14:00;;;;;;;1.98;1.77;;;;;;;;;;5072129;28;20110;-43
2022/05/03 15:16:25;;;;;;;2.22;2.03;;;;;;;;;;5053797;28;20039;-44
2022/05/03 15:18:51;;;;;;;4.00;1.88;;;;;;;;;;5070819;28;20103;-42
2022/05/03 15:21:16;;;;;;;2.80;1.67;;;;;;;;;;5071593;28;20024;-42
2022/05/03 15:26:26;;;;;;;1.48;1.38;;;;;;;;;;5071508;28;20534;-42
2022/05/03 15:28:52;;;;;;;4.60;1.73;;;;;;;;;;5071520;28;20028;-43
2022/05/03 15:31:18;;;;;;;1.88;1.77;;;;;;;;;;5071376;28;20115;-42
2022/05/03 15:33:44;;;;;;;1.80;1.40;;;;;;;;;;5071686;28;20468;-43
2022/05/03 15:36:10;;;;;;;1.70;1.60;;;;;;;;;;5071135;28;20040;-43
2022/05/03 15:38:35;;;;;;;1.83;1.60;;;;;;;;;;5071263;28;20029;-43
2022/05/03 15:41:00;;;;;;;1.67;1.55;;;;;;;;;;5071222;28;20567;-42
2022/05/03 15:43:27;;;;;;;2.85;1.83;;;;;;;;;;5071157;28;20028;-44
2022/05/03 15:45:52;;;;;;;3.08;1.77;;;;;;;;;;5052781;28;20036;-42
2022/05/03 15:48:18;;;;;;;21.20;2.17;;;;;;;;;;5069702;28;20089;-41
2022/05/03 15:50:44;;;;;;;48.95;7.25;;;;;;;;;;5044694;28;20032;-42
2022/05/03 15:53:09;;;;;;;38.22;5.22;;;;;;;;;;5059940;28;20036;-43
2022/05/03 15:55:35;;;;;;;2.70;1.95;;;;;;;;;;5059081;28;20024;-42
2022/05/03 15:58:00;;;;;;;5.47;1.98;;;;;;;;;;5043708;28;20028;-44